Latest Weather Forecast - Monday 29th November 2021(6 pm)

Forecast Period: 

6 pm 29th November to 6 am 30th November 2021 

Synopsis:

The Atlantic High Pressure System is the dominant  feature

Forecast:

Fair to occasionally cloudy and breezy with brief isolated showers

Weather Advisory/Warning:

None

Winds:

ENE – E at 15 to 35 km/h (9 - 22 mph)

Sea Conditions:

Moderate in open water; with swells (1.5 – 2.5 m)

Marine Advisory:

Small craft operators and sea bathers should exercise caution for above normal sea swells and occasional gusty winds

Upcoming Tides:
 High:  01:54 am 01:03 pm  
 Low:

07:02 pm (29th)

09:23 am 07:24 pm

Aviation WX

[Source: ADDS]
METAR
TVSA 092100Z 07005KT 9999 VCSH BKN018 29/26 Q1012 NOSIG =
TVSA 091700Z 0918/1018 08008KT 9999 SCT018
TAF
TVSA 091700Z 0918/1018 08008KT 9999 SCT018 =
SR / SS: 09:51 / 22:28 UTC (Sunrise Sunset 2022-08-09)